Time;durP1;ratioP1;P1;durP2;ratioP2;P2;SDS_P1;SDS_P2;PMS_P1;PMS_P2;Temp;Humidity;BMP_temperature;BMP_pressure;BME280_temperature;BME280_humidity;BME280_pressure;Samples;Min_cycle;Max_cycle;Signal;HPM_P1;HPM_P2
2022/05/18 00:00:07;;;;;;;21.53;15.03;;;14.30;94.70;;;;;;5040418;28;20203;-91
2022/05/18 00:02:32;;;;;;;18.00;14.20;;;14.20;94.70;;;;;;5043528;28;20168;-91
2022/05/18 00:04:58;;;;;;;17.77;14.43;;;14.20;94.70;;;;;;5045748;28;20214;-91
2022/05/18 00:07:23;;;;;;;18.87;14.17;;;14.10;94.70;;;;;;5043396;28;20172;-91
2022/05/18 00:09:51;;;;;;;23.43;15.97;;;14.10;94.80;;;;;;5043320;28;20180;-92
2022/05/18 00:12:17;;;;;;;20.13;15.33;;;14.10;94.80;;;;;;5043364;28;20176;-90
2022/05/18 00:14:43;;;;;;;19.27;14.97;;;14.10;94.80;;;;;;5061246;28;20168;-91
2022/05/18 00:17:09;;;;;;;15.00;13.20;;;14.10;94.90;;;;;;5045574;28;20187;-91
2022/05/18 00:19:35;;;;;;;16.57;14.13;;;14.10;94.90;;;;;;5042862;28;20186;-91
2022/05/18 00:22:01;;;;;;;14.97;13.47;;;14.10;94.90;;;;;;5042448;28;20202;-92
2022/05/18 00:24:26;;;;;;;18.73;14.20;;;14.10;94.90;;;;;;5045988;28;20179;-90
2022/05/18 00:26:52;;;;;;;18.70;13.87;;;14.00;94.90;;;;;;5047575;28;20583;-91
2022/05/18 00:29:18;;;;;;;17.63;15.13;;;14.10;95.00;;;;;;5049255;28;20179;-92
2022/05/18 00:31:46;;;;;;;18.53;14.70;;;14.00;95.00;;;;;;5048004;28;20200;-90
2022/05/18 00:34:13;;;;;;;15.70;13.70;;;14.00;95.00;;;;;;5065573;28;20190;-91
2022/05/18 00:36:39;;;;;;;17.30;13.60;;;14.00;95.00;;;;;;5048911;28;20180;-91
2022/05/18 00:39:05;;;;;;;17.33;14.63;;;13.90;95.00;;;;;;5047098;28;20182;-91
2022/05/18 00:41:31;;;;;;;14.87;13.23;;;13.90;95.00;;;;;;5048316;28;20272;-91
2022/05/18 00:43:57;;;;;;;15.00;13.50;;;13.90;95.10;;;;;;5065222;28;20180;-90
2022/05/18 00:46:23;;;;;;;16.80;12.87;;;13.80;95.00;;;;;;5065420;28;20206;-91
2022/05/18 00:48:49;;;;;;;17.57;13.13;;;13.80;95.00;;;;;;5048297;28;20255;-92
2022/05/18 00:51:29;;;;;;;15.17;12.80;;;13.70;95.00;;;;;;5046936;28;20214;-91
2022/05/18 00:54:13;;;;;;;13.23;11.80;;;13.70;95.00;;;;;;5047777;28;20171;-91
2022/05/18 00:56:46;;;;;;;13.27;11.33;;;13.60;95.00;;;;;;5065222;28;20236;-91
2022/05/18 00:59:17;;;;;;;13.17;11.27;;;13.50;95.00;;;;;;5047242;28;20176;-91
2022/05/18 01:01:43;;;;;;;17.27;10.90;;;13.50;95.00;;;;;;5046363;28;20203;-90
2022/05/18 01:04:10;;;;;;;11.90;9.93;;;13.40;95.00;;;;;;5063044;28;20552;-91
2022/05/18 01:06:58;;;;;;;11.53;10.27;;;13.40;94.90;;;;;;5065626;28;20203;-91
2022/05/18 01:09:28;;;;;;;12.30;9.47;;;13.30;94.90;;;;;;5045309;28;20649;-90
2022/05/18 01:11:54;;;;;;;11.60;8.70;;;13.30;94.90;;;;;;5046297;28;20199;-91
2022/05/18 01:14:22;;;;;;;9.80;7.70;;;13.30;94.80;;;;;;5046683;28;20187;-91
2022/05/18 01:16:49;;;;;;;9.93;6.73;;;13.20;94.70;;;;;;5065376;28;20191;-91
2022/05/18 01:19:50;;;;;;;8.77;6.00;;;13.20;94.60;;;;;;5063821;28;20210;-90
2022/05/18 01:22:44;;;;;;;7.30;4.97;;;13.10;94.40;;;;;;5026073;28;20199;-91
2022/05/18 01:25:32;;;;;;;7.90;4.77;;;13.10;94.20;;;;;;5065708;28;20168;-91
2022/05/18 01:27:59;;;;;;;11.80;4.17;;;13.00;94.00;;;;;;5065217;28;20173;-91
2022/05/18 01:30:26;;;;;;;10.53;4.07;;;12.90;93.70;;;;;;5065165;28;20192;-91
2022/05/18 01:32:55;;;;;;;5.53;3.37;;;12.90;93.30;;;;;;5064814;28;20175;-90
2022/05/18 01:35:30;;;;;;;7.40;3.70;;;12.80;93.00;;;;;;5046398;28;20619;-91
2022/05/18 01:37:59;;;;;;;9.33;3.23;;;12.80;92.70;;;;;;5046999;28;20173;-91
2022/05/18 01:41:02;;;;;;;12.07;3.93;;;12.70;92.40;;;;;;5046574;28;20203;-90
2022/05/18 01:43:43;;;;;;;5.00;3.03;;;12.60;91.90;;;;;;5067667;28;20179;-90
2022/05/18 01:46:12;;;;;;;4.63;3.23;;;12.50;91.60;;;;;;5049131;28;20195;-90
2022/05/18 01:48:41;;;;;;;4.87;2.60;;;12.50;91.40;;;;;;5065709;28;20267;-90
2022/05/18 01:51:09;;;;;;;7.00;2.90;;;12.40;91.20;;;;;;5047208;28;20307;-91
2022/05/18 01:53:36;;;;;;;5.70;2.93;;;12.30;91.10;;;;;;5045770;28;20187;-91
2022/05/18 01:56:03;;;;;;;7.17;2.50;;;12.30;91.00;;;;;;5046466;28;20524;-90
2022/05/18 01:58:28;;;;;;;4.03;2.77;;;12.30;90.80;;;;;;5045569;28;20219;-91
2022/05/18 02:00:54;;;;;;;5.77;2.50;;;12.20;90.70;;;;;;5046578;28;20253;-90
2022/05/18 02:03:21;;;;;;;4.43;2.57;;;12.10;90.50;;;;;;5046093;28;20175;-91
2022/05/18 02:05:47;;;;;;;4.13;2.63;;;12.10;90.40;;;;;;5048124;28;20226;-91
2022/05/18 02:08:19;;;;;;;9.07;2.20;;;12.10;90.30;;;;;;5052632;28;20183;-91
2022/05/18 02:10:45;;;;;;;3.40;2.57;;;12.10;90.20;;;;;;5052365;28;20275;-91
2022/05/18 02:13:11;;;;;;;7.97;2.73;;;12.00;90.10;;;;;;5069426;28;20178;-90
2022/05/18 02:15:36;;;;;;;3.87;2.40;;;12.00;90.10;;;;;;5048215;28;20180;-88
2022/05/18 02:18:02;;;;;;;5.27;2.60;;;12.00;90.10;;;;;;5047664;28;20202;-90
2022/05/18 02:20:28;;;;;;;6.37;2.50;;;12.00;90.00;;;;;;5048662;28;20263;-91
2022/05/18 02:22:53;;;;;;;5.53;2.40;;;12.00;90.10;;;;;;5067002;28;20191;-91
2022/05/18 02:25:20;;;;;;;6.23;2.40;;;12.00;90.10;;;;;;5050527;28;20237;-91
2022/05/18 02:27:46;;;;;;;4.90;2.60;;;12.00;90.00;;;;;;5050080;28;20199;-91
2022/05/18 02:30:13;;;;;;;5.60;2.13;;;12.00;90.00;;;;;;5051903;28;20188;-91
2022/05/18 02:32:39;;;;;;;3.40;2.30;;;12.00;89.80;;;;;;5067845;28;20664;-90
2022/05/18 02:35:05;;;;;;;3.43;2.33;;;12.00;89.70;;;;;;5048514;28;20259;-90
2022/05/18 02:37:32;;;;;;;3.00;2.30;;;12.00;89.60;;;;;;5065440;28;20164;-91
2022/05/18 02:39:57;;;;;;;5.97;2.27;;;12.00;89.50;;;;;;5065503;28;20164;-90
2022/05/18 02:42:23;;;;;;;4.10;2.10;;;12.00;89.30;;;;;;5049168;28;20243;-91
2022/05/18 02:44:48;;;;;;;4.90;2.10;;;12.00;89.10;;;;;;5049394;28;20172;-91
2022/05/18 02:47:14;;;;;;;9.80;2.23;;;12.00;89.00;;;;;;5062688;28;20224;-91
2022/05/18 02:49:39;;;;;;;7.73;3.07;;;12.00;88.90;;;;;;5066487;28;20192;-90
2022/05/18 02:52:05;;;;;;;4.17;2.00;;;12.00;88.70;;;;;;5048878;28;20680;-90
2022/05/18 02:57:15;;;;;;;10.13;1.97;;;12.00;88.10;;;;;;5069761;28;20171;-90
2022/05/18 02:59:42;;;;;;;4.33;2.10;;;12.00;87.50;;;;;;5053328;28;20180;-90
2022/05/18 03:02:08;;;;;;;14.17;2.60;;;12.10;87.10;;;;;;5073542;28;20168;-90
2022/05/18 03:04:34;;;;;;;3.70;2.40;;;12.10;86.90;;;;;;5075114;28;20194;-90
2022/05/18 03:06:59;;;;;;;10.00;2.10;;;12.00;86.70;;;;;;5057883;28;20234;-90
2022/05/18 03:09:25;;;;;;;4.20;1.80;;;12.00;86.60;;;;;;5060085;28;20168;-90
2022/05/18 03:11:51;;;;;;;14.63;2.50;;;12.00;86.50;;;;;;5058312;28;20204;-90
2022/05/18 03:14:17;;;;;;;3.30;2.70;;;12.00;86.50;;;;;;5074663;28;20240;-90
2022/05/18 03:16:44;;;;;;;5.67;2.23;;;12.00;86.60;;;;;;5072584;28;20156;-90
2022/05/18 03:19:13;;;;;;;3.17;2.10;;;12.00;86.50;;;;;;5060022;28;20156;-90
2022/05/18 03:24:23;;;;;;;5.97;2.07;;;12.10;86.30;;;;;;5079932;28;20164;-91
2022/05/18 03:26:48;;;;;;;4.03;2.40;;;12.00;86.20;;;;;;5079332;28;20195;-91
2022/05/18 03:29:14;;;;;;;4.23;2.13;;;12.00;86.20;;;;;;5062567;28;20172;-90
2022/05/18 03:31:40;;;;;;;5.73;2.00;;;12.10;86.00;;;;;;5061682;28;20199;-90
2022/05/18 03:34:08;;;;;;;8.50;2.10;;;12.10;85.90;;;;;;5079865;28;20217;-90
2022/05/18 03:36:33;;;;;;;5.80;2.23;;;12.10;85.80;;;;;;5062500;28;20190;-90
2022/05/18 03:39:00;;;;;;;4.27;2.37;;;12.20;85.70;;;;;;5061171;28;20203;-90
2022/05/18 03:41:26;;;;;;;4.40;1.70;;;12.20;85.40;;;;;;5059759;28;20196;-90
2022/05/18 03:43:52;;;;;;;4.57;2.10;;;12.30;85.10;;;;;;5061197;28;20175;-91
2022/05/18 03:46:17;;;;;;;7.33;3.93;;;12.30;85.00;;;;;;5079314;28;20203;-90
2022/05/18 03:48:43;;;;;;;5.17;2.30;;;12.30;84.90;;;;;;5060632;28;20183;-90
2022/05/18 03:51:12;;;;;;;3.30;2.20;;;12.30;84.70;;;;;;5078198;28;20220;-90
2022/05/18 03:53:37;;;;;;;8.73;2.13;;;12.30;84.70;;;;;;5060304;28;20203;-90
2022/05/18 03:56:04;;;;;;;5.60;2.30;;;12.30;84.80;;;;;;5060088;28;20160;-91
2022/05/18 03:58:30;;;;;;;2.67;1.93;;;12.30;84.90;;;;;;5077096;28;20184;-90
2022/05/18 04:00:56;;;;;;;7.17;2.10;;;12.30;84.70;;;;;;5059818;28;20192;-91
2022/05/18 04:03:26;;;;;;;5.23;2.00;;;12.30;84.70;;;;;;5057146;28;20182;-91
2022/05/18 04:05:53;;;;;;;3.43;2.00;;;12.30;84.80;;;;;;5078521;28;20203;-91
2022/05/18 04:08:19;;;;;;;3.70;2.20;;;12.40;84.60;;;;;;5076764;28;20168;-90
2022/05/18 04:10:45;;;;;;;7.03;2.33;;;12.40;84.90;;;;;;5056521;28;20298;-91
2022/05/18 04:13:13;;;;;;;5.03;2.30;;;12.40;84.70;;;;;;5056430;28;20172;-90
2022/05/18 04:15:39;;;;;;;4.03;2.00;;;12.50;84.60;;;;;;5076163;28;20248;-91
2022/05/18 04:18:05;;;;;;;6.10;1.90;;;12.50;84.30;;;;;;5076435;28;20184;-90
2022/05/18 04:20:30;;;;;;;6.40;2.10;;;12.60;83.90;;;;;;5057290;28;20208;-90
2022/05/18 04:22:56;;;;;;;9.87;2.83;;;12.60;84.10;;;;;;5058282;28;20176;-91
2022/05/18 04:25:25;;;;;;;6.07;2.40;;;12.70;84.00;;;;;;5058340;28;20180;-90
2022/05/18 04:27:51;;;;;;;4.40;2.30;;;12.80;83.90;;;;;;5074232;28;20274;-91
2022/05/18 04:30:18;;;;;;;7.27;2.20;;;12.80;83.70;;;;;;5070797;28;20192;-91
2022/05/18 04:32:44;;;;;;;4.33;2.07;;;12.90;83.60;;;;;;5053153;28;20179;-91
2022/05/18 04:35:12;;;;;;;4.57;2.47;;;13.00;83.40;;;;;;5053741;28;20214;-91
2022/05/18 04:37:37;;;;;;;4.50;2.50;;;13.00;82.80;;;;;;5054078;28;20179;-91
2022/05/18 04:40:04;;;;;;;7.37;2.73;;;13.10;82.50;;;;;;5052748;28;20224;-90
2022/05/18 04:42:30;;;;;;;4.90;2.23;;;13.20;82.50;;;;;;5071850;28;20168;-90
2022/05/18 04:44:56;;;;;;;4.17;2.43;;;13.20;82.40;;;;;;5055079;28;20180;-91
2022/05/18 04:47:23;;;;;;;9.17;2.40;;;13.20;82.60;;;;;;5054522;28;20245;-91
2022/05/18 04:49:50;;;;;;;9.73;2.30;;;13.20;82.50;;;;;;5072798;28;20191;-91
2022/05/18 04:52:17;;;;;;;3.67;2.53;;;13.30;82.40;;;;;;5055674;28;20235;-91
2022/05/18 04:54:42;;;;;;;3.73;2.93;;;13.30;82.50;;;;;;5073232;28;20180;-91
2022/05/18 04:57:08;;;;;;;6.10;2.70;;;13.30;82.70;;;;;;5055514;28;20247;-91
2022/05/18 04:59:34;;;;;;;9.70;2.43;;;13.40;82.70;;;;;;5071707;28;20176;-90
2022/05/18 05:01:59;;;;;;;3.43;2.10;;;13.40;82.70;;;;;;5055630;28;20180;-91
2022/05/18 05:04:28;;;;;;;4.37;2.70;;;13.50;82.50;;;;;;5070671;28;20182;-90
2022/05/18 05:06:54;;;;;;;7.17;2.73;;;13.60;82.40;;;;;;5069961;28;20203;-91
2022/05/18 05:09:22;;;;;;;4.10;2.83;;;13.60;82.70;;;;;;5056003;28;20179;-91
2022/05/18 05:11:48;;;;;;;4.57;3.00;;;13.70;82.60;;;;;;5051077;28;20196;-91
2022/05/18 05:14:14;;;;;;;3.37;2.63;;;13.60;82.60;;;;;;5051632;28;20201;-90
2022/05/18 05:16:40;;;;;;;5.87;3.17;;;13.70;83.10;;;;;;5071182;28;20168;-91
2022/05/18 05:19:05;;;;;;;6.53;3.10;;;13.70;83.30;;;;;;5055034;28;20180;-90
2022/05/18 05:21:31;;;;;;;9.97;2.97;;;13.80;83.30;;;;;;5054223;28;20200;-90
2022/05/18 05:23:56;;;;;;;7.00;3.20;;;13.90;83.20;;;;;;5053801;28;20176;-90
2022/05/18 05:26:22;;;;;;;5.23;2.90;;;13.90;83.40;;;;;;5072625;28;20203;-91
2022/05/18 05:28:47;;;;;;;7.67;2.80;;;14.00;83.80;;;;;;5055916;28;20160;-91
2022/05/18 05:31:13;;;;;;;11.60;3.73;;;14.00;84.00;;;;;;5055955;28;20199;-91
2022/05/18 05:33:40;;;;;;;11.13;3.20;;;14.00;83.70;;;;;;5052108;28;20648;-90
2022/05/18 05:36:07;;;;;;;6.47;3.20;;;14.00;83.80;;;;;;5071787;28;20199;-91
2022/05/18 05:38:33;;;;;;;3.93;2.90;;;14.10;84.10;;;;;;5056293;28;20179;-91
2022/05/18 05:41:02;;;;;;;6.27;3.00;;;14.00;83.80;;;;;;5070956;28;20200;-90
2022/05/18 05:43:31;;;;;;;8.33;2.80;;;14.10;84.10;;;;;;5052734;28;20184;-90
2022/05/18 05:45:59;;;;;;;5.90;3.77;;;14.20;84.00;;;;;;5053561;28;20214;-91
2022/05/18 05:48:26;;;;;;;13.70;3.40;;;14.20;84.00;;;;;;5054727;28;20199;-91
2022/05/18 05:50:52;;;;;;;7.83;3.60;;;14.20;84.00;;;;;;5055402;28;20215;-90
2022/05/18 05:53:17;;;;;;;7.47;3.40;;;14.20;84.00;;;;;;5070689;28;20182;-90
2022/05/18 05:55:43;;;;;;;8.43;4.23;;;14.30;84.30;;;;;;5052878;28;20179;-90
2022/05/18 05:58:08;;;;;;;8.53;3.30;;;14.20;84.40;;;;;;5057657;28;20184;-90
2022/05/18 06:00:34;;;;;;;7.37;3.53;;;14.30;84.40;;;;;;5054427;28;20203;-90
2022/05/18 06:03:00;;;;;;;6.30;3.53;;;14.30;84.40;;;;;;5071904;28;20184;-91
2022/05/18 06:05:25;;;;;;;13.07;3.97;;;14.30;84.10;;;;;;5052495;28;20203;-91
2022/05/18 06:07:51;;;;;;;9.77;3.90;;;14.30;84.20;;;;;;5071128;28;20191;-90
2022/05/18 06:10:16;;;;;;;7.70;4.17;;;14.30;84.30;;;;;;5055563;28;20191;-91
2022/05/18 06:12:42;;;;;;;4.83;3.50;;;14.30;84.20;;;;;;5071705;28;20183;-91
2022/05/18 06:15:08;;;;;;;10.93;3.90;;;14.30;84.30;;;;;;5051710;28;20202;-91
2022/05/18 06:17:34;;;;;;;4.77;3.33;;;14.30;84.10;;;;;;5053678;28;20243;-91
2022/05/18 06:20:00;;;;;;;9.07;3.87;;;14.30;83.80;;;;;;5054168;28;20200;-91
2022/05/18 06:22:26;;;;;;;5.43;3.33;;;14.30;83.80;;;;;;5053535;28;20180;-91
2022/05/18 06:24:52;;;;;;;9.13;4.40;;;14.30;83.80;;;;;;5050449;28;20176;-90
2022/05/18 06:27:19;;;;;;;10.30;3.77;;;14.30;83.70;;;;;;5052599;28;20263;-90
2022/05/18 06:29:47;;;;;;;12.27;4.30;;;14.30;83.90;;;;;;5051372;28;20279;-90
2022/05/18 06:32:13;;;;;;;6.77;3.67;;;14.40;84.00;;;;;;5070715;28;20170;-90
2022/05/18 06:34:40;;;;;;;6.57;3.87;;;14.40;83.70;;;;;;5070288;28;20231;-91
2022/05/18 06:37:05;;;;;;;5.43;4.33;;;14.50;83.70;;;;;;5050504;28;20180;-89
2022/05/18 06:39:31;;;;;;;9.90;3.87;;;14.50;83.60;;;;;;5048025;28;20322;-86
2022/05/18 06:41:58;;;;;;;13.23;4.13;;;14.60;83.60;;;;;;5042129;28;20574;-89
2022/05/18 06:44:24;;;;;;;6.70;3.63;;;14.70;83.20;;;;;;5062137;28;20164;-86
2022/05/18 06:46:50;;;;;;;5.83;3.90;;;14.80;83.20;;;;;;5065389;28;20196;-91
2022/05/18 06:49:17;;;;;;;19.30;4.27;;;14.80;83.10;;;;;;5056957;28;20214;-91
2022/05/18 06:51:44;;;;;;;11.27;3.83;;;14.80;83.30;;;;;;5059509;28;20196;-91
2022/05/18 06:54:10;;;;;;;7.00;4.17;;;14.80;83.40;;;;;;5063663;28;20172;-90
2022/05/18 06:56:39;;;;;;;12.37;4.57;;;14.90;83.40;;;;;;5065632;28;20156;-91
2022/05/18 06:59:06;;;;;;;4.90;4.37;;;15.00;83.10;;;;;;5058477;28;20271;-90
2022/05/18 07:01:32;;;;;;;9.90;4.20;;;15.00;83.10;;;;;;5063654;28;20607;-90
2022/05/18 07:03:58;;;;;;;6.93;3.83;;;15.10;82.80;;;;;;5046322;28;20180;-89
2022/05/18 07:06:26;;;;;;;10.55;4.28;;;15.30;83.10;;;;;;5064028;28;20199;-89
2022/05/18 07:08:52;;;;;;;5.70;4.07;;;15.30;82.40;;;;;;5062918;28;20184;-89
2022/05/18 07:11:22;;;;;;;17.55;5.03;;;15.50;82.40;;;;;;5046687;28;20286;-90
2022/05/18 07:13:51;;;;;;;8.10;4.50;;;15.60;82.60;;;;;;5043774;28;20179;-87
2022/05/18 07:16:18;;;;;;;7.55;4.75;;;15.70;82.10;;;;;;5042713;28;20237;-87
2022/05/18 07:18:44;;;;;;;6.10;4.40;;;15.70;81.90;;;;;;5063546;28;20187;-90
2022/05/18 07:21:10;;;;;;;7.18;4.82;;;15.80;81.50;;;;;;5044597;28;20200;-90
2022/05/18 07:23:36;;;;;;;7.78;4.63;;;15.80;81.80;;;;;;5042057;28;20541;-89
2022/05/18 07:26:02;;;;;;;8.95;4.95;;;15.80;82.10;;;;;;5039998;28;20206;-91
2022/05/18 07:28:28;;;;;;;9.05;5.32;;;15.90;82.10;;;;;;5039408;28;20175;-89
2022/05/18 07:30:54;;;;;;;10.52;5.43;;;15.90;81.60;;;;;;5041733;28;20191;-89
2022/05/18 07:33:22;;;;;;;9.45;6.43;;;16.20;81.80;;;;;;5049674;28;20174;-90
2022/05/18 07:35:49;;;;;;;7.90;5.45;;;16.30;82.40;;;;;;5053660;28;20184;-90
2022/05/18 07:38:15;;;;;;;9.05;5.10;;;16.60;81.80;;;;;;5050775;28;20172;-89
2022/05/18 07:40:42;;;;;;;6.05;4.82;;;16.80;81.70;;;;;;5047799;28;20188;-90
2022/05/18 07:43:07;;;;;;;13.75;5.45;;;16.90;80.70;;;;;;5052917;28;20176;-90
2022/05/18 07:45:35;;;;;;;8.27;6.55;;;17.20;81.50;;;;;;5046876;28;20239;-89
2022/05/18 07:48:00;;;;;;;8.93;6.05;;;17.30;81.00;;;;;;5052983;28;20172;-90
2022/05/18 07:50:26;;;;;;;11.40;6.20;;;17.40;80.20;;;;;;5049811;28;20242;-90
2022/05/18 07:52:57;;;;;;;8.52;6.15;;;17.60;80.90;;;;;;5044580;28;20176;-90
2022/05/18 07:55:22;;;;;;;10.57;5.85;;;17.80;80.70;;;;;;5064635;28;20148;-90
2022/05/18 07:57:48;;;;;;;16.88;6.47;;;17.80;79.70;;;;;;5063163;28;20187;-90
2022/05/18 08:00:15;;;;;;;8.73;6.15;;;17.90;79.80;;;;;;5046323;28;20207;-89
2022/05/18 08:02:41;;;;;;;10.50;6.00;;;18.10;80.00;;;;;;5044583;28;20573;-90
2022/05/18 08:05:07;;;;;;;16.08;6.53;;;18.10;79.40;;;;;;5044777;28;20172;-90
2022/05/18 08:07:32;;;;;;;9.13;5.60;;;18.20;79.30;;;;;;5044542;28;20203;-89
2022/05/18 08:15:27;;;;;;;9.63;6.18;;;18.60;78.60;;;;;;5061496;28;20168;-89
2022/05/18 08:17:53;;;;;;;7.03;6.32;;;18.60;77.00;;;;;;5044071;28;20171;-90
2022/05/18 08:20:21;;;;;;;9.50;6.60;;;18.60;77.40;;;;;;5048186;28;20371;-90
2022/05/18 08:22:47;;;;;;;7.05;5.72;;;18.70;77.90;;;;;;5062371;28;20168;-90
2022/05/18 08:25:13;;;;;;;13.00;6.22;;;18.90;77.70;;;;;;5063051;28;20203;-90
2022/05/18 08:27:41;;;;;;;8.20;6.15;;;18.90;77.10;;;;;;5063946;28;20168;-90
2022/05/18 08:30:09;;;;;;;10.35;6.00;;;19.00;76.90;;;;;;5046146;28;20196;-90
2022/05/18 08:32:34;;;;;;;11.40;5.80;;;19.20;76.90;;;;;;5048312;28;20267;-90
2022/05/18 08:35:00;;;;;;;8.10;6.03;;;19.30;76.90;;;;;;5046906;28;20211;-90
2022/05/18 08:37:25;;;;;;;10.65;6.07;;;19.50;77.30;;;;;;5045881;28;20187;-89
2022/05/18 08:39:51;;;;;;;10.00;6.82;;;19.50;76.20;;;;;;5064193;28;20262;-90
2022/05/18 08:42:22;;;;;;;11.13;6.28;;;19.70;76.20;;;;;;5051533;28;20270;-90
2022/05/18 08:44:48;;;;;;;13.00;6.43;;;19.80;75.70;;;;;;5051120;28;20211;-90
2022/05/18 08:47:35;;;;;;;6.53;5.68;;;19.90;76.10;;;;;;5051531;28;20504;-90
2022/05/18 08:50:04;;;;;;;17.85;6.15;;;20.00;75.20;;;;;;5066792;28;20191;-91
2022/05/18 08:52:39;;;;;;;10.38;6.38;;;20.20;76.70;;;;;;5066577;28;20164;-89
2022/05/18 08:55:37;;;;;;;7.80;6.20;;;20.40;75.70;;;;;;5060893;28;20655;-89
2022/05/18 08:58:22;;;;;;;11.40;6.30;;;20.50;75.30;;;;;;5043534;28;20207;-88
2022/05/18 09:00:58;;;;;;;13.18;5.80;;;20.70;74.50;;;;;;5059730;28;20219;-87
2022/05/18 09:03:38;;;;;;;8.52;6.82;;;20.70;75.10;;;;;;5040129;28;20186;-89
2022/05/18 09:06:16;;;;;;;10.88;6.15;;;20.80;74.30;;;;;;5043426;28;20302;-90
2022/05/18 09:10:11;;;;;;;10.75;6.63;;;21.00;75.60;;;;;;5062607;28;20244;-91
2022/05/18 09:11:33;;;;;;;11.48;6.90;;;21.20;75.00;;;;;;5072438;28;20199;-90
2022/05/18 09:13:58;;;;;;;9.75;6.03;;;21.20;73.70;;;;;;5051441;28;20160;-90
2022/05/18 09:16:33;;;;;;;9.10;5.90;;;21.20;74.40;;;;;;5053690;28;20195;-90
2022/05/18 09:19:18;;;;;;;8.60;6.30;;;21.20;72.60;;;;;;5068647;28;20167;-90
2022/05/18 09:21:57;;;;;;;6.95;5.75;;;21.20;73.80;;;;;;5057422;28;20200;-88
2022/05/18 09:24:44;;;;;;;11.32;6.57;;;21.30;73.20;;;;;;5065212;28;20187;-91
2022/05/18 09:27:16;;;;;;;8.13;5.65;;;21.50;73.30;;;;;;5052593;28;20258;-91
2022/05/18 09:29:57;;;;;;;13.73;5.72;;;21.60;72.80;;;;;;5063372;28;20188;-91
2022/05/18 09:32:41;;;;;;;14.57;6.40;;;21.70;72.30;;;;;;5060542;28;20171;-91
2022/05/18 09:35:34;;;;;;;9.10;5.65;;;21.90;72.90;;;;;;5078560;28;20184;-91
2022/05/18 09:38:20;;;;;;;7.97;5.65;;;21.90;73.20;;;;;;5061222;28;20156;-90
2022/05/18 09:40:47;;;;;;;10.30;5.72;;;22.10;73.00;;;;;;5060567;28;20203;-91
2022/05/18 09:43:35;;;;;;;8.27;6.55;;;22.20;71.80;;;;;;5060296;28;20164;-91
2022/05/18 09:46:01;;;;;;;7.10;5.85;;;22.20;72.30;;;;;;5059887;28;20251;-91
2022/05/18 09:48:47;;;;;;;11.98;6.68;;;22.40;72.10;;;;;;5060894;28;20199;-89
2022/05/18 09:51:13;;;;;;;9.20;5.97;;;22.50;69.80;;;;;;5061221;28;20219;-91
2022/05/18 09:53:40;;;;;;;9.07;5.70;;;22.70;71.10;;;;;;5061011;28;20176;-90
2022/05/18 09:56:13;;;;;;;9.00;5.97;;;22.70;70.70;;;;;;5060095;28;20275;-90
2022/05/18 09:58:40;;;;;;;9.90;6.05;;;22.80;70.20;;;;;;5060205;28;20156;-91
2022/05/18 10:09:42;;;;;;;8.77;5.72;;;23.40;70.60;;;;;;5077029;28;20158;-90
2022/05/18 10:12:15;;;;;;;9.93;5.97;;;23.50;69.80;;;;;;5058778;28;20174;-91
2022/05/18 10:14:41;;;;;;;6.60;5.90;;;23.50;70.40;;;;;;5060020;28;20160;-90
2022/05/18 10:17:13;;;;;;;11.02;6.22;;;23.50;69.80;;;;;;5059796;28;20174;-90
2022/05/18 10:19:44;;;;;;;7.65;5.28;;;23.60;68.10;;;;;;5059225;28;20183;-90
2022/05/18 10:22:16;;;;;;;8.25;5.60;;;23.60;69.40;;;;;;5078036;28;20156;-89
2022/05/18 10:24:45;;;;;;;7.45;5.43;;;23.70;69.90;;;;;;5073861;28;20211;-91
2022/05/18 10:27:17;;;;;;;9.93;5.95;;;23.80;68.80;;;;;;5068302;28;20247;-91
2022/05/18 10:30:00;;;;;;;7.43;6.07;;;23.80;70.00;;;;;;5069620;28;20180;-90
2022/05/18 10:32:31;;;;;;;9.55;5.70;;;23.80;69.00;;;;;;5055211;28;20171;-91
2022/05/18 10:34:59;;;;;;;8.38;5.82;;;23.90;69.60;;;;;;5051096;28;20267;-90
2022/05/18 10:37:34;;;;;;;11.27;5.63;;;24.00;68.80;;;;;;5069135;28;20199;-91
2022/05/18 10:40:13;;;;;;;6.63;5.88;;;24.20;68.30;;;;;;5049592;28;20272;-90
2022/05/18 10:42:55;;;;;;;9.77;6.25;;;24.20;67.60;;;;;;5050970;28;20156;-90
2022/05/18 10:45:26;;;;;;;9.25;6.00;;;24.20;66.70;;;;;;5051922;28;20180;-90
2022/05/18 10:47:58;;;;;;;11.85;5.47;;;24.30;68.80;;;;;;5067881;28;20180;-90
2022/05/18 10:50:36;;;;;;;10.77;5.80;;;24.30;67.90;;;;;;5050204;28;20218;-90
2022/05/18 10:53:21;;;;;;;8.57;6.20;;;24.50;68.60;;;;;;5046367;28;20187;-91
2022/05/18 10:55:54;;;;;;;12.85;5.68;;;24.40;66.70;;;;;;5050558;28;20164;-91
2022/05/18 10:58:26;;;;;;;8.57;5.68;;;24.60;68.20;;;;;;5046166;28;20179;-92
2022/05/18 11:01:10;;;;;;;8.38;5.43;;;24.70;68.60;;;;;;5042375;28;20191;-90
2022/05/18 11:03:45;;;;;;;13.70;6.25;;;25.00;66.80;;;;;;5045070;28;20180;-91
2022/05/18 11:06:22;;;;;;;9.00;6.13;;;25.00;65.70;;;;;;5042684;28;20336;-91
2022/05/18 11:08:50;;;;;;;6.55;5.43;;;25.00;64.30;;;;;;5046504;28;20164;-92
2022/05/18 11:11:30;;;;;;;6.22;5.40;;;25.10;66.30;;;;;;5048093;28;20207;-91
2022/05/18 11:14:04;;;;;;;14.00;5.35;;;25.30;66.00;;;;;;5067921;28;20572;-91
2022/05/18 11:16:40;;;;;;;7.30;5.68;;;25.40;66.20;;;;;;5044951;28;20168;-91
2022/05/18 11:19:40;;;;;;;8.55;5.15;;;25.60;65.90;;;;;;5046855;28;20172;-91
2022/05/18 11:22:33;;;;;;;8.77;5.40;;;25.80;64.90;;;;;;5016463;28;20650;-90
2022/05/18 11:25:09;;;;;;;6.50;4.97;;;26.00;64.40;;;;;;5059995;28;20171;-91
2022/05/18 11:27:57;;;;;;;10.05;5.10;;;26.20;63.30;;;;;;5056923;28;20207;-89
2022/05/18 11:30:45;;;;;;;6.15;4.35;;;26.00;62.90;;;;;;5047917;28;20192;-91
2022/05/18 11:33:36;;;;;;;7.13;4.60;;;26.20;63.90;;;;;;5064485;28;20164;-90
2022/05/18 11:36:21;;;;;;;5.82;4.97;;;26.30;61.80;;;;;;5058580;28;20240;-91
2022/05/18 11:39:04;;;;;;;7.03;4.68;;;26.50;62.20;;;;;;5119650;22;20242;-93
2022/05/18 11:41:49;;;;;;;6.00;4.57;;;26.70;63.90;;;;;;5059130;28;20204;-92
2022/05/18 11:44:57;;;;;;;8.40;4.85;;;26.70;62.40;;;;;;5045293;28;20180;-90
2022/05/18 11:47:41;;;;;;;6.88;4.60;;;26.80;60.80;;;;;;5044722;28;20230;-91
2022/05/18 11:50:28;;;;;;;7.95;4.55;;;26.70;62.10;;;;;;5042507;28;20199;-89
2022/05/18 11:53:14;;;;;;;9.57;4.50;;;26.70;60.50;;;;;;5059788;28;20155;-91
2022/05/18 11:55:48;;;;;;;5.82;4.28;;;26.80;62.70;;;;;;5039814;28;20175;-90
2022/05/18 11:58:47;;;;;;;6.03;4.43;;;26.80;60.70;;;;;;5041274;28;20536;-89
2022/05/18 12:01:48;;;;;;;9.82;4.05;;;27.00;60.90;;;;;;5039604;28;20196;-91
2022/05/18 12:04:38;;;;;;;8.25;4.30;;;27.10;60.60;;;;;;5041942;28;20179;-90
2022/05/18 12:07:18;;;;;;;6.45;4.30;;;27.10;59.60;;;;;;5039951;28;20234;-90
2022/05/18 12:09:46;;;;;;;6.57;4.07;;;27.20;60.10;;;;;;5039715;28;20533;-90
2022/05/18 12:12:30;;;;;;;6.15;3.85;;;27.20;58.00;;;;;;5039748;28;20180;-91
2022/05/18 12:15:18;;;;;;;10.27;4.20;;;27.30;59.40;;;;;;5039484;28;20176;-91
2022/05/18 12:17:54;;;;;;;7.18;3.78;;;27.30;57.10;;;;;;5043559;28;20168;-90
2022/05/18 12:21:00;;;;;;;7.80;3.55;;;27.50;57.90;;;;;;5041671;28;20195;-92
2022/05/18 12:23:31;;;;;;;8.50;3.75;;;27.60;54.90;;;;;;5040388;28;20164;-90
2022/05/18 12:25:58;;;;;;;4.43;3.22;;;27.50;57.40;;;;;;5039630;28;20192;-91
2022/05/18 12:28:25;;;;;;;5.63;3.28;;;27.30;56.90;;;;;;5042023;28;20168;-91
2022/05/18 12:30:51;;;;;;;7.93;3.55;;;27.40;56.60;;;;;;5059208;28;20547;-90
2022/05/18 12:33:19;;;;;;;5.72;4.25;;;27.60;56.40;;;;;;5040044;28;20234;-88
2022/05/18 12:35:59;;;;;;;6.80;4.15;;;27.70;55.10;;;;;;5055973;28;20168;-89
2022/05/18 12:38:52;;;;;;;5.47;3.30;;;27.80;54.00;;;;;;5038712;28;20281;-88
2022/05/18 12:41:23;;;;;;;7.82;3.08;;;27.50;52.00;;;;;;5003134;28;20761;-86
2022/05/18 12:43:51;;;;;;;7.78;3.53;;;27.70;53.20;;;;;;5038129;28;20649;-88
2022/05/18 12:46:16;;;;;;;6.43;3.13;;;27.80;53.20;;;;;;5057345;28;20207;-87
2022/05/18 12:49:26;;;;;;;7.43;3.20;;;28.00;52.70;;;;;;5038775;28;20168;-88
2022/05/18 12:52:05;;;;;;;4.95;2.80;;;27.90;51.60;;;;;;4959556;28;20206;-88
2022/05/18 12:54:47;;;;;;;5.80;2.70;;;27.90;49.90;;;;;;4959839;28;20171;-89
2022/05/18 12:57:41;;;;;;;9.25;3.40;;;28.00;49.10;;;;;;5015087;28;20187;-89
2022/05/18 13:00:31;;;;;;;4.68;2.60;;;28.20;49.40;;;;;;5038465;28;20196;-89
2022/05/18 13:03:09;;;;;;;5.38;2.85;;;28.20;49.80;;;;;;5056745;28;20176;-88
2022/05/18 13:05:57;;;;;;;11.52;3.35;;;28.40;49.60;;;;;;5039172;28;20175;-89
2022/05/18 13:08:23;;;;;;;6.05;3.25;;;28.50;48.60;;;;;;5038460;28;20172;-88
2022/05/18 13:11:13;;;;;;;4.82;2.42;;;28.50;48.10;;;;;;5038131;28;20199;-88
2022/05/18 13:14:00;;;;;;;7.05;3.10;;;28.40;48.00;;;;;;5038700;28;20175;-88
2022/05/18 13:16:38;;;;;;;4.28;2.90;;;28.40;49.80;;;;;;5038637;28;20183;-89
2022/05/18 13:19:30;;;;;;;5.25;3.10;;;28.60;50.60;;;;;;5038837;28;20190;-89
2022/05/18 13:22:15;;;;;;;7.40;3.20;;;28.80;48.60;;;;;;5038784;28;20203;-89